sensor_id;sensor_type;location;lat;lon;timestamp;temperature;humidity
57242;DHT22;43095;53.302;5.786;2024-03-08T00:00:13;1.00;99.90
57242;DHT22;43095;53.302;5.786;2024-03-08T00:02:47;1.00;99.90
57242;DHT22;43095;53.302;5.786;2024-03-08T00:05:15;1.00;99.90
57242;DHT22;43095;53.302;5.786;2024-03-08T00:07:42;1.00;99.90
57242;DHT22;43095;53.302;5.786;2024-03-08T00:10:12;1.00;99.90
57242;DHT22;43095;53.302;5.786;2024-03-08T00:12:43;1.00;99.90
57242;DHT22;43095;53.302;5.786;2024-03-08T00:15:14;1.00;99.90
57242;DHT22;43095;53.302;5.786;2024-03-08T00:17:45;1.00;99.90
57242;DHT22;43095;53.302;5.786;2024-03-08T00:20:15;1.00;99.90
57242;DHT22;43095;53.302;5.786;2024-03-08T00:22:46;1.00;99.90
57242;DHT22;43095;53.302;5.786;2024-03-08T00:25:14;1.00;99.90
57242;DHT22;43095;53.302;5.786;2024-03-08T00:27:42;1.00;99.90
57242;DHT22;43095;53.302;5.786;2024-03-08T00:30:10;1.00;99.90
57242;DHT22;43095;53.302;5.786;2024-03-08T00:32:40;1.00;99.90
57242;DHT22;43095;53.302;5.786;2024-03-08T00:35:08;1.00;99.90
57242;DHT22;43095;53.302;5.786;2024-03-08T00:37:36;1.00;99.90
57242;DHT22;43095;53.302;5.786;2024-03-08T00:40:04;1.00;99.90
57242;DHT22;43095;53.302;5.786;2024-03-08T00:42:35;1.00;99.90
57242;DHT22;43095;53.302;5.786;2024-03-08T00:45:02;1.00;99.90
57242;DHT22;43095;53.302;5.786;2024-03-08T00:47:31;1.00;99.90
57242;DHT22;43095;53.302;5.786;2024-03-08T00:49:59;1.00;99.90
57242;DHT22;43095;53.302;5.786;2024-03-08T00:52:27;0.90;99.90
57242;DHT22;43095;53.302;5.786;2024-03-08T00:54:54;0.90;99.90
57242;DHT22;43095;53.302;5.786;2024-03-08T00:57:22;0.90;99.90
57242;DHT22;43095;53.302;5.786;2024-03-08T00:59:49;0.80;99.90
57242;DHT22;43095;53.302;5.786;2024-03-08T01:02:17;0.90;99.90
57242;DHT22;43095;53.302;5.786;2024-03-08T01:04:46;0.80;99.90
57242;DHT22;43095;53.302;5.786;2024-03-08T01:07:14;0.80;99.90
57242;DHT22;43095;53.302;5.786;2024-03-08T01:09:43;0.80;99.90
57242;DHT22;43095;53.302;5.786;2024-03-08T01:12:10;0.80;99.90
57242;DHT22;43095;53.302;5.786;2024-03-08T01:14:38;0.80;99.90
57242;DHT22;43095;53.302;5.786;2024-03-08T01:17:06;0.80;99.90
57242;DHT22;43095;53.302;5.786;2024-03-08T01:19:33;0.80;99.90
57242;DHT22;43095;53.302;5.786;2024-03-08T01:22:01;0.80;99.90
57242;DHT22;43095;53.302;5.786;2024-03-08T01:24:28;0.80;99.90
57242;DHT22;43095;53.302;5.786;2024-03-08T01:26:56;0.80;99.90
57242;DHT22;43095;53.302;5.786;2024-03-08T01:29:23;0.80;99.90
57242;DHT22;43095;53.302;5.786;2024-03-08T01:31:51;0.80;99.90
57242;DHT22;43095;53.302;5.786;2024-03-08T01:34:19;0.80;99.90
57242;DHT22;43095;53.302;5.786;2024-03-08T01:36:48;0.80;99.90
57242;DHT22;43095;53.302;5.786;2024-03-08T01:39:15;0.80;99.90
57242;DHT22;43095;53.302;5.786;2024-03-08T01:41:44;0.80;99.90
57242;DHT22;43095;53.302;5.786;2024-03-08T01:44:11;0.80;99.90
57242;DHT22;43095;53.302;5.786;2024-03-08T01:46:44;0.80;99.90
57242;DHT22;43095;53.302;5.786;2024-03-08T01:49:12;0.80;99.90
57242;DHT22;43095;53.302;5.786;2024-03-08T01:51:41;0.80;99.90
57242;DHT22;43095;53.302;5.786;2024-03-08T01:54:10;0.80;99.90
57242;DHT22;43095;53.302;5.786;2024-03-08T01:56:40;0.90;99.90
57242;DHT22;43095;53.302;5.786;2024-03-08T01:59:08;0.90;99.90
57242;DHT22;43095;53.302;5.786;2024-03-08T02:01:35;0.90;99.90
57242;DHT22;43095;53.302;5.786;2024-03-08T02:04:03;0.90;99.90
57242;DHT22;43095;53.302;5.786;2024-03-08T02:06:33;0.90;99.90
57242;DHT22;43095;53.302;5.786;2024-03-08T02:09:01;0.90;99.90
57242;DHT22;43095;53.302;5.786;2024-03-08T02:11:36;0.90;99.90
57242;DHT22;43095;53.302;5.786;2024-03-08T02:14:04;0.90;99.90
57242;DHT22;43095;53.302;5.786;2024-03-08T02:16:33;0.90;99.90
57242;DHT22;43095;53.302;5.786;2024-03-08T02:19:01;0.90;99.90
57242;DHT22;43095;53.302;5.786;2024-03-08T02:21:28;0.90;99.90
57242;DHT22;43095;53.302;5.786;2024-03-08T02:23:56;0.90;99.90
57242;DHT22;43095;53.302;5.786;2024-03-08T02:26:24;0.90;99.90
57242;DHT22;43095;53.302;5.786;2024-03-08T02:28:52;0.90;99.90
57242;DHT22;43095;53.302;5.786;2024-03-08T02:31:20;0.90;99.90
57242;DHT22;43095;53.302;5.786;2024-03-08T02:33:48;0.80;99.90
57242;DHT22;43095;53.302;5.786;2024-03-08T02:36:16;0.80;99.90
57242;DHT22;43095;53.302;5.786;2024-03-08T02:38:44;0.80;99.90
57242;DHT22;43095;53.302;5.786;2024-03-08T02:41:11;0.80;99.90
57242;DHT22;43095;53.302;5.786;2024-03-08T02:43:39;0.80;99.90
57242;DHT22;43095;53.302;5.786;2024-03-08T02:46:06;0.80;99.90
57242;DHT22;43095;53.302;5.786;2024-03-08T02:48:34;0.80;99.90
57242;DHT22;43095;53.302;5.786;2024-03-08T02:51:02;0.80;99.90
57242;DHT22;43095;53.302;5.786;2024-03-08T02:53:30;0.80;99.90
57242;DHT22;43095;53.302;5.786;2024-03-08T02:55:58;0.70;99.90
57242;DHT22;43095;53.302;5.786;2024-03-08T02:58:26;0.80;99.90
57242;DHT22;43095;53.302;5.786;2024-03-08T03:00:54;0.70;99.90
57242;DHT22;43095;53.302;5.786;2024-03-08T03:03:22;0.60;99.90
57242;DHT22;43095;53.302;5.786;2024-03-08T03:05:49;0.60;99.90
57242;DHT22;43095;53.302;5.786;2024-03-08T03:08:17;0.70;99.90
57242;DHT22;43095;53.302;5.786;2024-03-08T03:10:45;0.60;99.90
57242;DHT22;43095;53.302;5.786;2024-03-08T03:13:13;0.60;99.90
57242;DHT22;43095;53.302;5.786;2024-03-08T03:15:41;0.60;99.90
57242;DHT22;43095;53.302;5.786;2024-03-08T03:18:12;0.60;99.90
57242;DHT22;43095;53.302;5.786;2024-03-08T03:20:40;0.60;99.90
57242;DHT22;43095;53.302;5.786;2024-03-08T03:23:09;0.60;99.90
57242;DHT22;43095;53.302;5.786;2024-03-08T03:25:41;0.60;99.90
57242;DHT22;43095;53.302;5.786;2024-03-08T03:28:08;0.60;99.90
57242;DHT22;43095;53.302;5.786;2024-03-08T03:30:38;0.50;99.90
57242;DHT22;43095;53.302;5.786;2024-03-08T03:33:06;0.50;99.90
57242;DHT22;43095;53.302;5.786;2024-03-08T03:35:35;0.50;99.90
57242;DHT22;43095;53.302;5.786;2024-03-08T03:38:04;0.50;99.90
57242;DHT22;43095;53.302;5.786;2024-03-08T03:40:38;0.50;99.90
57242;DHT22;43095;53.302;5.786;2024-03-08T03:43:07;0.50;99.90
57242;DHT22;43095;53.302;5.786;2024-03-08T03:45:39;0.50;99.90
57242;DHT22;43095;53.302;5.786;2024-03-08T03:48:08;0.50;99.90
57242;DHT22;43095;53.302;5.786;2024-03-08T03:50:38;0.50;99.90
57242;DHT22;43095;53.302;5.786;2024-03-08T03:53:07;0.50;99.90
57242;DHT22;43095;53.302;5.786;2024-03-08T03:55:37;0.50;99.90
57242;DHT22;43095;53.302;5.786;2024-03-08T03:58:07;0.50;99.90
57242;DHT22;43095;53.302;5.786;2024-03-08T04:00:38;0.40;99.90
57242;DHT22;43095;53.302;5.786;2024-03-08T04:03:06;0.50;99.90
57242;DHT22;43095;53.302;5.786;2024-03-08T04:05:34;0.40;99.90
57242;DHT22;43095;53.302;5.786;2024-03-08T04:08:02;0.40;99.90
57242;DHT22;43095;53.302;5.786;2024-03-08T04:10:30;0.40;99.90
57242;DHT22;43095;53.302;5.786;2024-03-08T04:12:58;0.40;99.90
57242;DHT22;43095;53.302;5.786;2024-03-08T04:15:25;0.40;99.90
57242;DHT22;43095;53.302;5.786;2024-03-08T04:17:52;0.40;99.90
57242;DHT22;43095;53.302;5.786;2024-03-08T04:20:21;0.40;99.90
57242;DHT22;43095;53.302;5.786;2024-03-08T04:22:48;0.40;99.90
57242;DHT22;43095;53.302;5.786;2024-03-08T04:25:17;0.40;99.90
57242;DHT22;43095;53.302;5.786;2024-03-08T04:27:45;0.40;99.90
57242;DHT22;43095;53.302;5.786;2024-03-08T04:30:12;0.40;99.90
57242;DHT22;43095;53.302;5.786;2024-03-08T04:32:40;0.30;99.90
57242;DHT22;43095;53.302;5.786;2024-03-08T04:35:11;0.30;99.90
57242;DHT22;43095;53.302;5.786;2024-03-08T04:37:40;0.30;99.90
57242;DHT22;43095;53.302;5.786;2024-03-08T04:40:08;0.30;99.90
57242;DHT22;43095;53.302;5.786;2024-03-08T04:42:37;0.30;99.90
57242;DHT22;43095;53.302;5.786;2024-03-08T04:45:05;0.30;99.90
57242;DHT22;43095;53.302;5.786;2024-03-08T04:47:35;0.30;99.90
57242;DHT22;43095;53.302;5.786;2024-03-08T04:50:04;0.20;99.90
57242;DHT22;43095;53.302;5.786;2024-03-08T04:52:32;0.20;99.90
57242;DHT22;43095;53.302;5.786;2024-03-08T04:55:00;0.20;99.90
57242;DHT22;43095;53.302;5.786;2024-03-08T04:57:28;0.20;99.90
57242;DHT22;43095;53.302;5.786;2024-03-08T04:59:56;0.20;99.90
57242;DHT22;43095;53.302;5.786;2024-03-08T05:02:25;0.20;99.90
57242;DHT22;43095;53.302;5.786;2024-03-08T05:04:52;0.20;99.90
57242;DHT22;43095;53.302;5.786;2024-03-08T05:07:20;0.10;99.90
57242;DHT22;43095;53.302;5.786;2024-03-08T05:09:47;0.10;99.90
57242;DHT22;43095;53.302;5.786;2024-03-08T05:12:19;0.10;99.90
57242;DHT22;43095;53.302;5.786;2024-03-08T05:14:47;0.00;99.90
57242;DHT22;43095;53.302;5.786;2024-03-08T05:17:17;0.00;99.90
57242;DHT22;43095;53.302;5.786;2024-03-08T05:19:45;0.00;99.90
57242;DHT22;43095;53.302;5.786;2024-03-08T05:22:12;0.00;99.90
57242;DHT22;43095;53.302;5.786;2024-03-08T05:24:40;0.00;99.90
57242;DHT22;43095;53.302;5.786;2024-03-08T05:27:08;0.00;99.90
57242;DHT22;43095;53.302;5.786;2024-03-08T05:29:35;0.00;99.90
57242;DHT22;43095;53.302;5.786;2024-03-08T05:32:03;0.00;99.90
57242;DHT22;43095;53.302;5.786;2024-03-08T05:34:31;0.00;99.90
57242;DHT22;43095;53.302;5.786;2024-03-08T05:36:59;0.00;99.90
57242;DHT22;43095;53.302;5.786;2024-03-08T05:39:27;0.00;99.90
57242;DHT22;43095;53.302;5.786;2024-03-08T05:41:55;0.00;99.90
57242;DHT22;43095;53.302;5.786;2024-03-08T05:44:23;0.00;99.90
57242;DHT22;43095;53.302;5.786;2024-03-08T05:46:50;0.00;99.90
57242;DHT22;43095;53.302;5.786;2024-03-08T05:49:18;0.00;99.90
57242;DHT22;43095;53.302;5.786;2024-03-08T05:51:45;-0.10;99.90
57242;DHT22;43095;53.302;5.786;2024-03-08T05:54:15;-0.10;99.90
57242;DHT22;43095;53.302;5.786;2024-03-08T05:56:46;-0.10;99.90
57242;DHT22;43095;53.302;5.786;2024-03-08T05:59:15;-0.10;99.90
57242;DHT22;43095;53.302;5.786;2024-03-08T06:01:42;-0.10;99.90
57242;DHT22;43095;53.302;5.786;2024-03-08T06:04:10;-0.10;99.90
57242;DHT22;43095;53.302;5.786;2024-03-08T06:06:39;-0.10;99.90
57242;DHT22;43095;53.302;5.786;2024-03-08T06:09:07;-0.10;99.90
57242;DHT22;43095;53.302;5.786;2024-03-08T06:11:41;-0.10;99.90
57242;DHT22;43095;53.302;5.786;2024-03-08T06:14:10;-0.10;99.90
57242;DHT22;43095;53.302;5.786;2024-03-08T06:16:37;-0.10;99.90
57242;DHT22;43095;53.302;5.786;2024-03-08T06:19:05;-0.10;99.90
57242;DHT22;43095;53.302;5.786;2024-03-08T06:21:33;-0.10;99.90
57242;DHT22;43095;53.302;5.786;2024-03-08T06:24:00;-0.20;99.90
57242;DHT22;43095;53.302;5.786;2024-03-08T06:26:28;-0.20;99.90
57242;DHT22;43095;53.302;5.786;2024-03-08T06:29:00;-0.20;99.90
57242;DHT22;43095;53.302;5.786;2024-03-08T06:31:28;-0.20;99.90
57242;DHT22;43095;53.302;5.786;2024-03-08T06:33:55;-0.20;99.90
57242;DHT22;43095;53.302;5.786;2024-03-08T06:36:24;-0.20;99.90
57242;DHT22;43095;53.302;5.786;2024-03-08T06:38:52;-0.20;99.90
57242;DHT22;43095;53.302;5.786;2024-03-08T06:41:20;-0.20;99.90
57242;DHT22;43095;53.302;5.786;2024-03-08T06:43:47;-0.20;99.90
57242;DHT22;43095;53.302;5.786;2024-03-08T06:46:16;-0.20;99.90
57242;DHT22;43095;53.302;5.786;2024-03-08T06:48:44;-0.20;99.90
57242;DHT22;43095;53.302;5.786;2024-03-08T06:51:14;-0.20;99.90
57242;DHT22;43095;53.302;5.786;2024-03-08T06:53:43;-0.10;99.90
57242;DHT22;43095;53.302;5.786;2024-03-08T06:56:10;-0.10;99.90
57242;DHT22;43095;53.302;5.786;2024-03-08T06:58:38;-0.10;99.90
57242;DHT22;43095;53.302;5.786;2024-03-08T07:01:05;-0.10;99.90
57242;DHT22;43095;53.302;5.786;2024-03-08T07:03:35;-0.10;99.90
57242;DHT22;43095;53.302;5.786;2024-03-08T07:06:04;-0.10;99.90
57242;DHT22;43095;53.302;5.786;2024-03-08T07:08:34;-0.10;99.90
57242;DHT22;43095;53.302;5.786;2024-03-08T07:11:02;-0.10;99.90
57242;DHT22;43095;53.302;5.786;2024-03-08T07:13:32;0.00;99.90
57242;DHT22;43095;53.302;5.786;2024-03-08T07:16:00;0.00;99.90
57242;DHT22;43095;53.302;5.786;2024-03-08T07:18:28;0.00;99.90
57242;DHT22;43095;53.302;5.786;2024-03-08T07:20:57;0.00;99.90
57242;DHT22;43095;53.302;5.786;2024-03-08T07:23:25;0.00;99.90
57242;DHT22;43095;53.302;5.786;2024-03-08T07:26:15;0.00;99.90
57242;DHT22;43095;53.302;5.786;2024-03-08T07:28:43;0.00;99.90
57242;DHT22;43095;53.302;5.786;2024-03-08T07:31:11;0.10;99.90
57242;DHT22;43095;53.302;5.786;2024-03-08T07:34:05;0.10;99.90
57242;DHT22;43095;53.302;5.786;2024-03-08T07:36:34;0.20;99.90
57242;DHT22;43095;53.302;5.786;2024-03-08T07:39:02;0.20;99.90
57242;DHT22;43095;53.302;5.786;2024-03-08T07:41:34;0.30;99.90
57242;DHT22;43095;53.302;5.786;2024-03-08T07:44:03;0.30;99.90
57242;DHT22;43095;53.302;5.786;2024-03-08T07:46:31;0.40;99.90
57242;DHT22;43095;53.302;5.786;2024-03-08T07:49:03;0.40;99.90
57242;DHT22;43095;53.302;5.786;2024-03-08T07:51:31;0.40;99.90
57242;DHT22;43095;53.302;5.786;2024-03-08T07:54:02;0.50;99.90
57242;DHT22;43095;53.302;5.786;2024-03-08T07:56:31;0.60;99.90
57242;DHT22;43095;53.302;5.786;2024-03-08T07:58:59;0.60;99.90
57242;DHT22;43095;53.302;5.786;2024-03-08T08:01:26;0.60;99.90
57242;DHT22;43095;53.302;5.786;2024-03-08T08:03:54;0.60;99.90
57242;DHT22;43095;53.302;5.786;2024-03-08T08:06:21;0.80;99.90
57242;DHT22;43095;53.302;5.786;2024-03-08T08:08:49;0.80;99.90
57242;DHT22;43095;53.302;5.786;2024-03-08T08:11:18;0.80;99.90
57242;DHT22;43095;53.302;5.786;2024-03-08T08:13:46;0.90;99.90
57242;DHT22;43095;53.302;5.786;2024-03-08T08:16:15;1.00;99.90
57242;DHT22;43095;53.302;5.786;2024-03-08T08:18:46;1.00;99.90
57242;DHT22;43095;53.302;5.786;2024-03-08T08:21:14;1.10;99.90
57242;DHT22;43095;53.302;5.786;2024-03-08T08:23:42;1.10;99.90
57242;DHT22;43095;53.302;5.786;2024-03-08T08:26:10;1.20;99.90
57242;DHT22;43095;53.302;5.786;2024-03-08T08:28:40;1.20;99.90
57242;DHT22;43095;53.302;5.786;2024-03-08T08:31:08;1.30;99.90
57242;DHT22;43095;53.302;5.786;2024-03-08T08:33:36;1.40;99.90
57242;DHT22;43095;53.302;5.786;2024-03-08T08:36:04;1.40;99.80
57242;DHT22;43095;53.302;5.786;2024-03-08T08:38:31;1.50;99.70
57242;DHT22;43095;53.302;5.786;2024-03-08T08:40:59;1.60;99.70
57242;DHT22;43095;53.302;5.786;2024-03-08T08:43:26;1.60;99.50
57242;DHT22;43095;53.302;5.786;2024-03-08T08:45:54;1.70;99.30
57242;DHT22;43095;53.302;5.786;2024-03-08T08:48:22;1.70;99.20
57242;DHT22;43095;53.302;5.786;2024-03-08T08:50:49;1.80;99.20
57242;DHT22;43095;53.302;5.786;2024-03-08T08:53:19;1.90;99.10
57242;DHT22;43095;53.302;5.786;2024-03-08T08:55:46;2.00;98.90
57242;DHT22;43095;53.302;5.786;2024-03-08T08:58:14;2.00;98.50
57242;DHT22;43095;53.302;5.786;2024-03-08T09:00:42;2.10;97.80
57242;DHT22;43095;53.302;5.786;2024-03-08T09:03:13;2.10;97.90
57242;DHT22;43095;53.302;5.786;2024-03-08T09:05:41;2.20;98.00
57242;DHT22;43095;53.302;5.786;2024-03-08T09:08:12;2.30;98.00
57242;DHT22;43095;53.302;5.786;2024-03-08T09:10:40;2.40;97.90
57242;DHT22;43095;53.302;5.786;2024-03-08T09:13:08;2.50;98.00
57242;DHT22;43095;53.302;5.786;2024-03-08T09:15:44;2.60;97.80
57242;DHT22;43095;53.302;5.786;2024-03-08T09:18:12;2.80;97.70
57242;DHT22;43095;53.302;5.786;2024-03-08T09:20:40;2.90;97.50
57242;DHT22;43095;53.302;5.786;2024-03-08T09:23:08;3.00;97.20
57242;DHT22;43095;53.302;5.786;2024-03-08T09:25:36;3.00;96.50
57242;DHT22;43095;53.302;5.786;2024-03-08T09:28:03;3.10;95.50
57242;DHT22;43095;53.302;5.786;2024-03-08T09:30:33;3.10;95.20
57242;DHT22;43095;53.302;5.786;2024-03-08T09:33:02;3.30;94.90
57242;DHT22;43095;53.302;5.786;2024-03-08T09:35:30;3.30;94.80
57242;DHT22;43095;53.302;5.786;2024-03-08T09:37:57;3.40;94.30
57242;DHT22;43095;53.302;5.786;2024-03-08T09:40:25;3.50;93.60
57242;DHT22;43095;53.302;5.786;2024-03-08T09:42:54;3.50;93.30
57242;DHT22;43095;53.302;5.786;2024-03-08T09:45:22;3.60;93.00
57242;DHT22;43095;53.302;5.786;2024-03-08T09:47:50;3.60;92.90
57242;DHT22;43095;53.302;5.786;2024-03-08T09:50:18;3.80;93.00
57242;DHT22;43095;53.302;5.786;2024-03-08T09:52:49;3.90;92.50
57242;DHT22;43095;53.302;5.786;2024-03-08T09:55:17;4.00;92.20
57242;DHT22;43095;53.302;5.786;2024-03-08T09:57:51;4.00;91.80
57242;DHT22;43095;53.302;5.786;2024-03-08T10:00:37;4.10;90.90
57242;DHT22;43095;53.302;5.786;2024-03-08T10:03:05;4.10;90.50
57242;DHT22;43095;53.302;5.786;2024-03-08T10:05:32;4.20;89.70
57242;DHT22;43095;53.302;5.786;2024-03-08T10:08:00;4.30;89.70
57242;DHT22;43095;53.302;5.786;2024-03-08T10:10:28;4.40;88.60
57242;DHT22;43095;53.302;5.786;2024-03-08T10:12:56;4.40;88.10
57242;DHT22;43095;53.302;5.786;2024-03-08T10:15:23;4.50;87.80
57242;DHT22;43095;53.302;5.786;2024-03-08T10:17:51;4.50;87.00
57242;DHT22;43095;53.302;5.786;2024-03-08T10:20:20;4.70;87.10
57242;DHT22;43095;53.302;5.786;2024-03-08T10:22:48;4.70;86.50
57242;DHT22;43095;53.302;5.786;2024-03-08T10:25:33;4.70;85.50
57242;DHT22;43095;53.302;5.786;2024-03-08T10:28:05;4.70;85.40
57242;DHT22;43095;53.302;5.786;2024-03-08T10:30:33;4.80;84.70
57242;DHT22;43095;53.302;5.786;2024-03-08T10:33:01;4.80;84.70
57242;DHT22;43095;53.302;5.786;2024-03-08T10:35:33;4.90;84.70
57242;DHT22;43095;53.302;5.786;2024-03-08T10:38:03;5.00;84.50
57242;DHT22;43095;53.302;5.786;2024-03-08T10:40:34;5.00;84.50
57242;DHT22;43095;53.302;5.786;2024-03-08T10:43:03;5.10;84.20
57242;DHT22;43095;53.302;5.786;2024-03-08T10:45:40;5.20;84.00
57242;DHT22;43095;53.302;5.786;2024-03-08T10:51:05;5.30;83.10
57242;DHT22;43095;53.302;5.786;2024-03-08T10:53:36;5.30;82.90
57242;DHT22;43095;53.302;5.786;2024-03-08T10:56:08;5.30;82.20
57242;DHT22;43095;53.302;5.786;2024-03-08T10:58:37;5.30;81.00
57242;DHT22;43095;53.302;5.786;2024-03-08T11:01:05;5.50;83.00
57242;DHT22;43095;53.302;5.786;2024-03-08T11:03:49;5.50;82.90
57242;DHT22;43095;53.302;5.786;2024-03-08T11:06:29;5.70;82.90
57242;DHT22;43095;53.302;5.786;2024-03-08T11:08:59;5.80;82.90
57242;DHT22;43095;53.302;5.786;2024-03-08T11:11:27;5.90;82.00
57242;DHT22;43095;53.302;5.786;2024-03-08T11:14:02;6.00;82.00
57242;DHT22;43095;53.302;5.786;2024-03-08T11:18:59;6.20;81.20
57242;DHT22;43095;53.302;5.786;2024-03-08T11:21:32;6.30;81.00
57242;DHT22;43095;53.302;5.786;2024-03-08T11:26:34;6.40;80.40
57242;DHT22;43095;53.302;5.786;2024-03-08T11:32:05;6.60;80.00
57242;DHT22;43095;53.302;5.786;2024-03-08T11:34:41;6.70;79.80
57242;DHT22;43095;53.302;5.786;2024-03-08T11:37:14;6.80;80.30
57242;DHT22;43095;53.302;5.786;2024-03-08T11:39:50;7.00;80.20
57242;DHT22;43095;53.302;5.786;2024-03-08T11:42:21;7.00;79.40
57242;DHT22;43095;53.302;5.786;2024-03-08T11:44:50;7.10;79.00
57242;DHT22;43095;53.302;5.786;2024-03-08T11:47:20;7.20;78.80
57242;DHT22;43095;53.302;5.786;2024-03-08T11:49:48;7.30;78.30
57242;DHT22;43095;53.302;5.786;2024-03-08T11:52:17;7.40;78.20
57242;DHT22;43095;53.302;5.786;2024-03-08T11:54:53;7.50;77.80
57242;DHT22;43095;53.302;5.786;2024-03-08T11:57:25;7.50;77.70
57242;DHT22;43095;53.302;5.786;2024-03-08T11:59:54;7.60;77.60
57242;DHT22;43095;53.302;5.786;2024-03-08T12:02:25;7.70;76.90
57242;DHT22;43095;53.302;5.786;2024-03-08T12:04:59;7.80;76.60
57242;DHT22;43095;53.302;5.786;2024-03-08T12:07:31;8.00;76.70
57242;DHT22;43095;53.302;5.786;2024-03-08T12:10:18;8.10;76.00
57242;DHT22;43095;53.302;5.786;2024-03-08T12:12:53;8.20;76.00
57242;DHT22;43095;53.302;5.786;2024-03-08T12:15:24;8.30;76.20
57242;DHT22;43095;53.302;5.786;2024-03-08T12:17:54;8.40;75.40
57242;DHT22;43095;53.302;5.786;2024-03-08T12:20:28;8.50;74.90
57242;DHT22;43095;53.302;5.786;2024-03-08T12:22:59;8.50;74.50
57242;DHT22;43095;53.302;5.786;2024-03-08T12:25:31;8.60;74.30
57242;DHT22;43095;53.302;5.786;2024-03-08T12:28:10;8.60;73.90
57242;DHT22;43095;53.302;5.786;2024-03-08T12:30:49;8.70;73.10
57242;DHT22;43095;53.302;5.786;2024-03-08T12:33:23;8.80;73.00
57242;DHT22;43095;53.302;5.786;2024-03-08T12:35:52;8.80;71.20
57242;DHT22;43095;53.302;5.786;2024-03-08T12:38:22;8.90;73.10
57242;DHT22;43095;53.302;5.786;2024-03-08T12:41:00;9.00;72.40
57242;DHT22;43095;53.302;5.786;2024-03-08T12:43:32;9.00;71.90
57242;DHT22;43095;53.302;5.786;2024-03-08T12:46:01;9.20;71.10
57242;DHT22;43095;53.302;5.786;2024-03-08T12:48:28;9.20;71.00
57242;DHT22;43095;53.302;5.786;2024-03-08T12:51:01;9.30;70.90
57242;DHT22;43095;53.302;5.786;2024-03-08T12:53:29;9.30;70.30
57242;DHT22;43095;53.302;5.786;2024-03-08T12:55:57;9.40;70.30
57242;DHT22;43095;53.302;5.786;2024-03-08T12:58:24;9.50;70.10
57242;DHT22;43095;53.302;5.786;2024-03-08T13:00:53;9.60;70.10
57242;DHT22;43095;53.302;5.786;2024-03-08T13:03:20;9.70;69.60
57242;DHT22;43095;53.302;5.786;2024-03-08T13:05:50;9.80;69.80
57242;DHT22;43095;53.302;5.786;2024-03-08T13:08:17;10.00;69.60
57242;DHT22;43095;53.302;5.786;2024-03-08T13:10:45;10.10;69.50
57242;DHT22;43095;53.302;5.786;2024-03-08T13:13:13;10.20;68.50
57242;DHT22;43095;53.302;5.786;2024-03-08T13:15:45;10.20;67.50
57242;DHT22;43095;53.302;5.786;2024-03-08T13:18:12;10.10;67.00
57242;DHT22;43095;53.302;5.786;2024-03-08T13:20:40;10.10;67.10
57242;DHT22;43095;53.302;5.786;2024-03-08T13:23:14;10.20;66.40
57242;DHT22;43095;53.302;5.786;2024-03-08T13:25:42;10.20;66.20
57242;DHT22;43095;53.302;5.786;2024-03-08T13:28:09;10.20;65.50
57242;DHT22;43095;53.302;5.786;2024-03-08T13:30:38;10.20;65.50
57242;DHT22;43095;53.302;5.786;2024-03-08T13:33:05;10.30;65.70
57242;DHT22;43095;53.302;5.786;2024-03-08T13:35:34;10.30;65.80
57242;DHT22;43095;53.302;5.786;2024-03-08T13:38:02;10.30;64.90
57242;DHT22;43095;53.302;5.786;2024-03-08T13:40:31;10.30;65.40
57242;DHT22;43095;53.302;5.786;2024-03-08T13:42:59;10.30;65.10
57242;DHT22;43095;53.302;5.786;2024-03-08T13:45:28;10.40;64.90
57242;DHT22;43095;53.302;5.786;2024-03-08T13:47:56;10.40;64.90
57242;DHT22;43095;53.302;5.786;2024-03-08T13:50:24;10.60;65.70
57242;DHT22;43095;53.302;5.786;2024-03-08T13:52:53;10.80;65.10
57242;DHT22;43095;53.302;5.786;2024-03-08T13:55:23;10.90;64.70
57242;DHT22;43095;53.302;5.786;2024-03-08T13:57:53;10.80;63.60
57242;DHT22;43095;53.302;5.786;2024-03-08T14:00:21;10.80;63.70
57242;DHT22;43095;53.302;5.786;2024-03-08T14:02:50;10.80;64.10
57242;DHT22;43095;53.302;5.786;2024-03-08T14:05:17;11.00;63.80
57242;DHT22;43095;53.302;5.786;2024-03-08T14:07:46;11.10;63.30
57242;DHT22;43095;53.302;5.786;2024-03-08T14:10:17;11.10;63.20
57242;DHT22;43095;53.302;5.786;2024-03-08T14:12:50;11.10;63.10
57242;DHT22;43095;53.302;5.786;2024-03-08T14:15:18;11.00;63.00
57242;DHT22;43095;53.302;5.786;2024-03-08T14:17:53;11.10;63.20
57242;DHT22;43095;53.302;5.786;2024-03-08T14:20:21;11.20;63.00
57242;DHT22;43095;53.302;5.786;2024-03-08T14:22:55;11.20;63.10
57242;DHT22;43095;53.302;5.786;2024-03-08T14:25:23;11.30;63.50
57242;DHT22;43095;53.302;5.786;2024-03-08T14:27:53;11.30;63.10
57242;DHT22;43095;53.302;5.786;2024-03-08T14:30:21;11.40;62.60
57242;DHT22;43095;53.302;5.786;2024-03-08T14:33:05;11.40;62.50
57242;DHT22;43095;53.302;5.786;2024-03-08T14:35:37;11.40;62.30
57242;DHT22;43095;53.302;5.786;2024-03-08T14:38:05;11.30;62.70
57242;DHT22;43095;53.302;5.786;2024-03-08T14:40:37;11.40;62.50
57242;DHT22;43095;53.302;5.786;2024-03-08T14:43:05;11.50;62.00
57242;DHT22;43095;53.302;5.786;2024-03-08T14:45:33;11.50;61.60
57242;DHT22;43095;53.302;5.786;2024-03-08T14:48:02;11.50;61.60
57242;DHT22;43095;53.302;5.786;2024-03-08T14:50:32;11.50;61.40
57242;DHT22;43095;53.302;5.786;2024-03-08T14:53:01;11.50;61.50
57242;DHT22;43095;53.302;5.786;2024-03-08T14:55:30;11.60;60.70
57242;DHT22;43095;53.302;5.786;2024-03-08T14:57:57;11.50;60.60
57242;DHT22;43095;53.302;5.786;2024-03-08T15:00:25;11.50;60.90
57242;DHT22;43095;53.302;5.786;2024-03-08T15:03:11;11.50;61.20
57242;DHT22;43095;53.302;5.786;2024-03-08T15:05:43;11.50;60.60
57242;DHT22;43095;53.302;5.786;2024-03-08T15:08:15;11.50;60.80
57242;DHT22;43095;53.302;5.786;2024-03-08T15:10:47;11.50;61.20
57242;DHT22;43095;53.302;5.786;2024-03-08T15:13:21;11.50;61.20
57242;DHT22;43095;53.302;5.786;2024-03-08T15:15:51;11.40;60.20
57242;DHT22;43095;53.302;5.786;2024-03-08T15:18:25;11.30;60.60
57242;DHT22;43095;53.302;5.786;2024-03-08T15:20:56;11.30;60.50
57242;DHT22;43095;53.302;5.786;2024-03-08T15:23:24;11.10;60.30
57242;DHT22;43095;53.302;5.786;2024-03-08T15:25:51;11.10;60.30
57242;DHT22;43095;53.302;5.786;2024-03-08T15:28:19;11.00;60.00
57242;DHT22;43095;53.302;5.786;2024-03-08T15:30:48;10.80;60.20
57242;DHT22;43095;53.302;5.786;2024-03-08T15:33:21;10.70;60.40
57242;DHT22;43095;53.302;5.786;2024-03-08T15:35:54;10.40;60.50
57242;DHT22;43095;53.302;5.786;2024-03-08T15:38:27;10.10;61.20
57242;DHT22;43095;53.302;5.786;2024-03-08T15:40:55;9.70;62.00
57242;DHT22;43095;53.302;5.786;2024-03-08T15:43:22;9.40;63.00
57242;DHT22;43095;53.302;5.786;2024-03-08T15:45:52;9.10;63.70
57242;DHT22;43095;53.302;5.786;2024-03-08T15:48:21;8.90;64.60
57242;DHT22;43095;53.302;5.786;2024-03-08T15:50:49;8.70;65.30
57242;DHT22;43095;53.302;5.786;2024-03-08T15:53:17;8.50;65.90
57242;DHT22;43095;53.302;5.786;2024-03-08T15:55:45;8.40;66.70
57242;DHT22;43095;53.302;5.786;2024-03-08T15:58:14;8.30;67.20
57242;DHT22;43095;53.302;5.786;2024-03-08T16:00:42;8.10;67.60
57242;DHT22;43095;53.302;5.786;2024-03-08T16:03:14;8.00;68.00
57242;DHT22;43095;53.302;5.786;2024-03-08T16:05:43;8.00;68.50